Terminal Aerodrome Forecast
Issued by NWS Sterling, VA

Home | Current Version | Previous Version | Text Only | Print | Product List | Glossary On
Versions: 1 2 3 4 5 6 7 8 9 10 11 12 13 14 15 16 17 18 19 20 21 22 23
000
FTUS41 KLWX 230851 AAC
TAFBWI
TAF AMD
KBWI 230851Z 2309/2412 35004KT 5SM BR BKN035
      TEMPO 2309/2311 2SM BR
     FM231400 05007KT P6SM OVC040
     FM231800 08007KT P6SM OVC035
     FM240500 04004KT P6SM OVC008
     FM241100 02004KT P6SM BKN010=

USA.gov is the U.S. government's official web portal to all federal, state and local government web resources and services.